Time;durP1;ratioP1;P1;durP2;ratioP2;P2;SDS_P1;SDS_P2;PMS_P1;PMS_P2;Temp;Humidity;BMP_temperature;BMP_pressure;BME280_temperature;BME280_humidity;BME280_pressure;Samples;Min_cycle;Max_cycle;Signal;HPM_P1;HPM_P2
2022/12/30 00:01:31;;;;;;;17.80;1.77;;;8.40;99.90;;;;;;5105992;28;20064;-72
2022/12/30 00:03:57;;;;;;;12.70;2.05;;;8.30;99.90;;;;;;5101239;28;20031;-71
2022/12/30 00:06:23;;;;;;;14.00;2.17;;;8.10;99.90;;;;;;5106596;28;20072;-71
2022/12/30 00:08:52;;;;;;;19.35;3.67;;;8.10;99.90;;;;;;5107426;28;20032;-70
2022/12/30 00:11:21;;;;;;;9.05;1.95;;;7.90;99.90;;;;;;5096748;28;20182;-70
2022/12/30 00:34:45;;;;;;;9.35;1.55;;;7.90;99.90;;;;;;5091407;28;20039;-70
2022/12/30 00:37:11;;;;;;;11.98;1.45;;;8.10;99.90;;;;;;5091137;28;20592;-71
2022/12/30 00:39:36;;;;;;;10.25;2.42;;;8.30;99.90;;;;;;5094382;28;20118;-71
2022/12/30 00:44:47;;;;;;;14.35;2.03;;;8.60;99.90;;;;;;5097001;28;20110;-71
2022/12/30 00:47:13;;;;;;;17.35;2.40;;;8.90;99.90;;;;;;5093979;28;20343;-72
2022/12/30 00:57:52;;;;;;;16.63;2.50;;;9.00;99.90;;;;;;5091882;28;20070;-71
2022/12/30 01:00:17;;;;;;;20.90;2.22;;;9.10;99.90;;;;;;5092599;28;20024;-71
2022/12/30 01:02:43;;;;;;;27.83;6.28;;;9.10;99.90;;;;;;5094622;28;20026;-70
2022/12/30 01:05:09;;;;;;;19.25;2.90;;;9.10;99.90;;;;;;5092277;28;20031;-70
2022/12/30 01:07:34;;;;;;;12.40;2.60;;;9.10;99.90;;;;;;5093764;28;20081;-70
2022/12/30 01:10:00;;;;;;;18.02;2.75;;;9.10;99.90;;;;;;5090170;28;20062;-70
2022/12/30 01:12:26;;;;;;;25.48;3.35;;;9.10;99.90;;;;;;5093393;28;20078;-70
2022/12/30 01:14:54;;;;;;;13.38;2.55;;;8.90;99.90;;;;;;5093023;28;20492;-70
2022/12/30 01:17:26;;;;;;;11.77;2.28;;;8.90;99.90;;;;;;5094350;28;20553;-70
2022/12/30 01:19:52;;;;;;;9.77;1.88;;;8.70;99.90;;;;;;5095750;28;20067;-69
2022/12/30 01:22:18;;;;;;;13.13;2.08;;;8.80;99.90;;;;;;5090899;28;20059;-71
2022/12/30 01:24:44;;;;;;;12.95;2.38;;;8.80;99.90;;;;;;5088135;28;20020;-70
2022/12/30 01:27:10;;;;;;;13.70;1.38;;;8.90;99.90;;;;;;5090335;28;20024;-70
2022/12/30 01:29:38;;;;;;;13.23;2.20;;;8.90;99.90;;;;;;5094380;28;20043;-70
2022/12/30 01:32:12;;;;;;;12.00;1.63;;;8.80;99.90;;;;;;5092894;28;20032;-70
2022/12/30 01:34:38;;;;;;;14.02;2.72;;;8.90;99.90;;;;;;5086447;28;20121;-71
2022/12/30 01:37:05;;;;;;;13.48;1.98;;;8.90;99.90;;;;;;5089838;28;20016;-71
2022/12/30 01:39:31;;;;;;;14.65;2.25;;;8.90;99.90;;;;;;5093616;28;20392;-71
2022/12/30 01:41:57;;;;;;;15.55;2.15;;;8.80;99.90;;;;;;5095315;28;20036;-71
2022/12/30 01:44:56;;;;;;;14.27;2.35;;;8.80;99.90;;;;;;5091502;28;20047;-71
2022/12/30 01:47:31;;;;;;;16.10;3.78;;;8.70;99.90;;;;;;5093911;28;20034;-71
2022/12/30 01:50:11;;;;;;;24.15;4.65;;;8.70;99.90;;;;;;5105629;28;20034;-70
2022/12/30 01:52:57;;;;;;;18.55;2.42;;;8.60;99.90;;;;;;5085921;28;20433;-71
2022/12/30 01:55:35;;;;;;;8.35;1.85;;;8.60;99.90;;;;;;5104734;28;20023;-71
2022/12/30 01:58:03;;;;;;;18.08;4.35;;;8.60;99.90;;;;;;5102189;28;20044;-71
2022/12/30 02:00:29;;;;;;;24.48;2.47;;;8.50;99.90;;;;;;5107228;28;20123;-69
2022/12/30 02:02:56;;;;;;;16.42;2.13;;;8.50;99.90;;;;;;5099404;28;20527;-70
2022/12/30 02:05:27;;;;;;;17.17;2.13;;;8.60;99.90;;;;;;5102188;28;20020;-70
2022/12/30 02:08:05;;;;;;;21.05;2.88;;;8.60;99.90;;;;;;5104768;28;20023;-70
2022/12/30 02:10:31;;;;;;;16.73;2.22;;;8.70;99.90;;;;;;5105510;28;20026;-70
2022/12/30 02:12:58;;;;;;;17.35;2.50;;;8.60;99.90;;;;;;5099192;28;20050;-70
2022/12/30 02:15:28;;;;;;;11.55;1.92;;;8.60;99.90;;;;;;5106531;28;20062;-70
2022/12/30 02:18:12;;;;;;;11.85;3.47;;;8.60;99.90;;;;;;5081706;28;20480;-71
2022/12/30 02:20:58;;;;;;;12.00;1.33;;;8.50;99.90;;;;;;5087227;28;20117;-70
2022/12/30 02:23:52;;;;;;;19.40;2.13;;;8.60;99.90;;;;;;5101188;28;20027;-70
2022/12/30 02:26:53;;;;;;;13.63;2.08;;;8.60;99.90;;;;;;5102293;28;20036;-70
2022/12/30 02:29:36;;;;;;;11.60;2.22;;;8.50;99.90;;;;;;5096468;28;20043;-71
2022/12/30 02:32:25;;;;;;;17.20;2.45;;;8.50;99.90;;;;;;5096931;28;20027;-70
2022/12/30 02:35:15;;;;;;;10.50;1.42;;;8.60;99.90;;;;;;5098058;28;20032;-69
2022/12/30 02:37:44;;;;;;;7.80;1.45;;;8.60;99.90;;;;;;5104770;28;20130;-69
2022/12/30 02:46:12;;;;;;;17.83;2.00;;;8.60;99.90;;;;;;5101231;28;20080;-71
2022/12/30 02:48:42;;;;;;;11.77;1.48;;;8.70;99.90;;;;;;5099077;28;20047;-71
2022/12/30 02:53:54;;;;;;;17.63;2.03;;;8.60;99.90;;;;;;5101776;28;20467;-70
2022/12/30 02:56:19;;;;;;;10.02;1.65;;;8.60;99.90;;;;;;5101464;28;20103;-69
2022/12/30 03:05:10;;;;;;;15.93;1.77;;;8.60;99.90;;;;;;5099274;28;20039;-71
2022/12/30 03:07:42;;;;;;;16.52;2.20;;;8.50;99.90;;;;;;5085268;28;20047;-71
2022/12/30 03:13:10;;;;;;;15.63;2.90;;;8.40;99.90;;;;;;5100758;28;20505;-70
2022/12/30 03:15:47;;;;;;;13.40;1.95;;;8.50;99.90;;;;;;5101028;28;20024;-70
2022/12/30 03:18:14;;;;;;;10.32;1.85;;;8.50;99.90;;;;;;5102974;28;20386;-70
2022/12/30 03:20:41;;;;;;;15.00;1.40;;;8.50;99.90;;;;;;5103795;28;20487;-70
2022/12/30 03:28:43;;;;;;;8.52;1.73;;;8.50;99.90;;;;;;5104982;28;20510;-71
2022/12/30 03:31:13;;;;;;;12.10;1.85;;;8.50;99.90;;;;;;5093904;28;20019;-70
2022/12/30 03:33:40;;;;;;;10.77;1.45;;;8.50;99.90;;;;;;5104651;28;20015;-70
2022/12/30 03:36:16;;;;;;;11.98;1.52;;;8.60;99.90;;;;;;5102618;28;20132;-71
2022/12/30 03:38:51;;;;;;;9.70;2.67;;;8.60;99.90;;;;;;5096999;28;20050;-71
2022/12/30 03:41:19;;;;;;;12.73;1.30;;;8.70;99.90;;;;;;5097363;28;20039;-71
2022/12/30 03:43:45;;;;;;;11.70;1.70;;;8.60;99.90;;;;;;5099835;28;20030;-71
2022/12/30 03:46:11;;;;;;;18.83;2.75;;;8.70;99.90;;;;;;5102289;28;20020;-70
2022/12/30 03:48:37;;;;;;;11.40;2.95;;;8.70;99.90;;;;;;5107906;28;20047;-71
2022/12/30 03:51:03;;;;;;;15.85;1.25;;;8.70;99.90;;;;;;5102243;28;20562;-71
2022/12/30 03:53:29;;;;;;;10.85;1.70;;;8.70;99.90;;;;;;5094590;28;20027;-70
2022/12/30 03:55:55;;;;;;;11.05;1.80;;;8.70;99.90;;;;;;5101552;28;20020;-70
2022/12/30 03:58:29;;;;;;;15.10;1.38;;;8.70;99.90;;;;;;5090688;28;20075;-70
2022/12/30 04:00:55;;;;;;;12.27;1.33;;;8.70;99.90;;;;;;5097601;28;20024;-71
2022/12/30 04:03:21;;;;;;;13.20;1.27;;;8.70;99.90;;;;;;5099403;28;20331;-71
2022/12/30 04:05:46;;;;;;;15.43;1.60;;;8.80;99.90;;;;;;5101517;28;20490;-70
2022/12/30 04:08:12;;;;;;;12.30;1.63;;;8.80;99.90;;;;;;5102414;28;20023;-71
2022/12/30 04:10:38;;;;;;;12.25;1.38;;;8.80;99.90;;;;;;5105941;28;20047;-70
2022/12/30 04:13:03;;;;;;;12.32;1.70;;;8.70;99.90;;;;;;5080077;28;20047;-70
2022/12/30 04:15:29;;;;;;;10.82;2.20;;;8.70;99.90;;;;;;5102182;28;20115;-70
2022/12/30 04:17:55;;;;;;;7.22;1.10;;;8.70;99.90;;;;;;5092670;28;20043;-71
2022/12/30 04:20:20;;;;;;;13.13;1.92;;;8.70;99.90;;;;;;5101843;28;20024;-71
2022/12/30 04:22:46;;;;;;;12.90;1.70;;;8.60;99.90;;;;;;5107411;28;20423;-70
2022/12/30 04:25:12;;;;;;;17.67;3.30;;;8.60;99.90;;;;;;5107090;28;20677;-71
2022/12/30 04:27:37;;;;;;;10.98;1.45;;;8.60;99.90;;;;;;5109145;28;20030;-70
2022/12/30 04:30:04;;;;;;;8.60;1.60;;;8.60;99.90;;;;;;5101148;28;20440;-70
2022/12/30 04:32:31;;;;;;;15.50;2.75;;;8.60;99.90;;;;;;5101274;28;20161;-70
2022/12/30 04:34:57;;;;;;;9.10;2.00;;;8.50;99.90;;;;;;5107162;28;20043;-71
2022/12/30 04:37:22;;;;;;;8.85;1.33;;;8.50;99.90;;;;;;5091126;28;20032;-70
2022/12/30 04:39:48;;;;;;;5.45;1.08;;;8.40;99.90;;;;;;5106759;28;20107;-70
2022/12/30 04:42:14;;;;;;;14.65;3.47;;;8.40;99.90;;;;;;5101591;28;20062;-70
2022/12/30 04:44:39;;;;;;;10.32;1.38;;;8.40;99.90;;;;;;5107993;28;20023;-70
2022/12/30 04:47:05;;;;;;;11.30;1.23;;;8.40;99.90;;;;;;5099257;28;20117;-70
2022/12/30 04:49:31;;;;;;;11.77;2.92;;;8.40;99.90;;;;;;5098905;28;20196;-71
2022/12/30 04:51:56;;;;;;;11.05;2.35;;;8.40;99.90;;;;;;5088375;28;20032;-70
2022/12/30 04:54:22;;;;;;;10.80;2.13;;;8.50;99.90;;;;;;5089060;28;20032;-70
2022/12/30 04:56:49;;;;;;;9.45;1.73;;;8.50;99.90;;;;;;5079505;28;20034;-70
2022/12/30 04:59:15;;;;;;;12.95;2.83;;;8.50;99.90;;;;;;5094280;28;20043;-70
2022/12/30 05:01:40;;;;;;;6.38;1.20;;;8.50;99.90;;;;;;5094391;28;20387;-70
2022/12/30 05:04:06;;;;;;;10.13;2.17;;;8.60;99.90;;;;;;5086037;28;20032;-70
2022/12/30 05:06:32;;;;;;;13.02;1.35;;;8.60;99.90;;;;;;5103787;28;20016;-69
2022/12/30 05:08:58;;;;;;;7.80;1.25;;;8.70;99.90;;;;;;5085423;28;20538;-70
2022/12/30 05:11:23;;;;;;;11.00;2.03;;;8.80;99.90;;;;;;5089765;28;20032;-71
2022/12/30 05:13:49;;;;;;;10.35;1.40;;;8.80;99.90;;;;;;5085643;28;20085;-70
2022/12/30 05:16:15;;;;;;;10.95;1.90;;;8.80;99.90;;;;;;5075934;28;20029;-70
2022/12/30 05:18:40;;;;;;;10.65;3.45;;;8.90;99.90;;;;;;5080978;28;20032;-70
2022/12/30 05:21:06;;;;;;;9.55;2.22;;;8.90;99.90;;;;;;5071059;28;20391;-69
2022/12/30 05:26:16;;;;;;;12.70;3.15;;;9.00;99.90;;;;;;5085186;28;20442;-69
2022/12/30 05:28:44;;;;;;;10.02;2.65;;;9.00;99.90;;;;;;5090454;28;20027;-70
2022/12/30 05:31:10;;;;;;;16.55;2.17;;;9.00;99.90;;;;;;5092180;28;20145;-72
2022/12/30 05:33:36;;;;;;;13.45;1.90;;;9.00;99.90;;;;;;5087534;28;20115;-71
2022/12/30 05:36:02;;;;;;;19.60;3.65;;;9.10;99.90;;;;;;5092087;28;20518;-71
2022/12/30 05:38:27;;;;;;;14.20;2.60;;;9.10;99.90;;;;;;5082005;28;20507;-71
2022/12/30 05:40:54;;;;;;;10.20;1.65;;;9.20;99.90;;;;;;5082421;28;20016;-71
2022/12/30 05:43:19;;;;;;;9.93;1.95;;;9.20;99.90;;;;;;5093851;28;20475;-70
2022/12/30 05:45:45;;;;;;;16.40;2.00;;;9.20;99.90;;;;;;5095391;28;20034;-70
2022/12/30 05:48:11;;;;;;;14.75;2.72;;;9.20;99.90;;;;;;5086050;28;20051;-70
2022/12/30 05:50:36;;;;;;;10.48;1.83;;;9.20;99.90;;;;;;5103145;28;20020;-71
2022/12/30 05:53:02;;;;;;;15.18;2.33;;;9.20;99.90;;;;;;5105401;28;20062;-70
2022/12/30 05:55:28;;;;;;;15.93;2.95;;;9.20;99.90;;;;;;5096810;28;20028;-71
2022/12/30 05:57:54;;;;;;;24.75;3.35;;;9.20;99.90;;;;;;5097964;28;20382;-71
2022/12/30 06:00:19;;;;;;;14.02;2.20;;;9.20;99.90;;;;;;5108237;28;20088;-71
2022/12/30 06:02:45;;;;;;;15.32;2.60;;;9.20;99.90;;;;;;5105556;28;20024;-71
2022/12/30 06:05:11;;;;;;;15.23;2.30;;;9.20;99.90;;;;;;5102683;28;20082;-71
2022/12/30 06:07:36;;;;;;;12.45;1.95;;;9.20;99.90;;;;;;5096968;28;20024;-70
2022/12/30 06:10:03;;;;;;;19.48;2.97;;;9.20;99.90;;;;;;5100910;28;20384;-70
2022/12/30 06:12:28;;;;;;;14.98;1.92;;;9.20;99.90;;;;;;5100563;28;20032;-70
2022/12/30 06:14:54;;;;;;;12.65;1.52;;;9.20;99.90;;;;;;5103979;28;20027;-70
2022/12/30 06:17:20;;;;;;;15.75;1.73;;;9.10;99.90;;;;;;5106886;28;20483;-70
2022/12/30 06:19:45;;;;;;;14.27;2.05;;;9.20;99.90;;;;;;5104651;28;20410;-70
2022/12/30 06:22:11;;;;;;;9.70;1.45;;;9.20;99.90;;;;;;5104154;28;20028;-71
2022/12/30 06:24:37;;;;;;;10.25;1.48;;;9.20;99.90;;;;;;5102974;28;20043;-72
2022/12/30 06:27:03;;;;;;;10.88;1.80;;;9.20;99.90;;;;;;5101895;28;20075;-71
2022/12/30 06:29:28;;;;;;;15.70;3.03;;;9.30;99.90;;;;;;5075717;28;20042;-72
2022/12/30 06:31:54;;;;;;;10.68;2.80;;;9.30;99.90;;;;;;5100255;28;20590;-72
2022/12/30 06:34:20;;;;;;;17.52;1.85;;;9.30;99.90;;;;;;5096785;28;20031;-71
2022/12/30 06:36:45;;;;;;;11.45;1.80;;;9.30;99.90;;;;;;5093761;28;20028;-71
2022/12/30 06:39:11;;;;;;;13.23;1.77;;;9.30;99.90;;;;;;5092460;28;20111;-71
2022/12/30 06:41:37;;;;;;;12.07;1.60;;;9.30;99.90;;;;;;5094702;28;20438;-71
2022/12/30 06:44:02;;;;;;;9.27;2.40;;;9.30;99.90;;;;;;5095260;28;20080;-71
2022/12/30 06:46:28;;;;;;;13.18;2.10;;;9.30;99.90;;;;;;5105868;28;20399;-71
2022/12/30 06:48:54;;;;;;;15.23;2.15;;;9.30;99.90;;;;;;5100386;28;20440;-71
2022/12/30 06:51:20;;;;;;;9.63;1.80;;;9.30;99.90;;;;;;5102777;28;20092;-70
2022/12/30 06:53:46;;;;;;;14.48;2.55;;;9.30;99.90;;;;;;5102408;28;20097;-70
2022/12/30 06:56:12;;;;;;;10.02;2.00;;;9.40;99.90;;;;;;5099392;28;20055;-71
2022/12/30 06:58:37;;;;;;;11.38;1.95;;;9.30;99.90;;;;;;5098660;28;20071;-70
2022/12/30 07:01:03;;;;;;;12.18;2.22;;;9.30;99.90;;;;;;5101216;28;20475;-71
2022/12/30 07:03:29;;;;;;;12.00;1.80;;;9.40;99.90;;;;;;5099134;28;20031;-70
2022/12/30 07:05:55;;;;;;;11.38;1.67;;;9.40;99.90;;;;;;5078120;28;20020;-71
2022/12/30 07:08:20;;;;;;;11.45;1.63;;;9.40;99.90;;;;;;5078970;28;20046;-70
2022/12/30 07:10:46;;;;;;;12.32;2.00;;;9.40;99.90;;;;;;5102087;28;20095;-70
2022/12/30 07:13:15;;;;;;;8.70;1.10;;;9.40;99.90;;;;;;5096299;28;20031;-70
2022/12/30 07:15:41;;;;;;;14.88;1.60;;;9.50;99.90;;;;;;5092645;28;20490;-70
2022/12/30 07:18:07;;;;;;;11.60;1.40;;;9.50;99.90;;;;;;5098436;28;20036;-71
2022/12/30 07:20:33;;;;;;;18.23;2.63;;;9.50;99.90;;;;;;5093779;28;20223;-71
2022/12/30 07:23:43;;;;;;;18.33;3.28;;;9.50;99.90;;;;;;5096644;28;20115;-71
2022/12/30 07:26:08;;;;;;;15.35;2.03;;;9.50;99.90;;;;;;5101505;28;20024;-70
2022/12/30 07:28:34;;;;;;;10.38;1.83;;;9.50;99.90;;;;;;5106485;28;20031;-71
2022/12/30 07:31:00;;;;;;;14.90;1.75;;;9.50;99.90;;;;;;5093905;28;20052;-71
2022/12/30 07:33:25;;;;;;;24.27;3.17;;;9.40;99.90;;;;;;5093413;28;20050;-70
2022/12/30 07:35:51;;;;;;;20.77;2.35;;;9.30;99.90;;;;;;5102107;28;20020;-70
2022/12/30 07:41:40;;;;;;;15.05;1.92;;;9.20;99.90;;;;;;5043472;28;20036;-72
2022/12/30 07:44:06;;;;;;;18.10;1.95;;;9.20;99.90;;;;;;5042491;28;20029;-73
2022/12/30 07:46:32;;;;;;;12.30;3.10;;;9.10;99.90;;;;;;5029730;28;20124;-72
2022/12/30 07:48:57;;;;;;;14.40;2.97;;;9.10;99.90;;;;;;5037377;28;20048;-74
2022/12/30 07:51:23;;;;;;;17.70;2.33;;;9.00;99.90;;;;;;5038725;28;20037;-73
2022/12/30 07:53:49;;;;;;;18.92;2.13;;;9.00;99.90;;;;;;5044285;28;20119;-73
2022/12/30 07:56:14;;;;;;;19.42;2.15;;;8.90;99.90;;;;;;5046138;28;20469;-72
2022/12/30 07:58:40;;;;;;;10.15;2.15;;;8.90;99.90;;;;;;5047067;28;20110;-74
2022/12/30 08:01:11;;;;;;;21.95;4.70;;;8.80;99.90;;;;;;5045554;28;20025;-73
2022/12/30 08:03:38;;;;;;;22.20;2.80;;;8.80;99.90;;;;;;5049842;28;20112;-73
2022/12/30 08:06:10;;;;;;;17.58;2.53;;;8.90;99.90;;;;;;5039358;28;20082;-74
2022/12/30 08:08:36;;;;;;;13.98;2.47;;;8.90;99.90;;;;;;5043766;28;20044;-75
2022/12/30 08:11:02;;;;;;;15.38;2.33;;;8.80;99.90;;;;;;5033720;28;20025;-76
2022/12/30 08:13:31;;;;;;;18.33;2.13;;;8.80;99.90;;;;;;5042612;28;20036;-75
2022/12/30 08:15:57;;;;;;;14.05;2.42;;;8.90;99.90;;;;;;5042676;28;20040;-74
2022/12/30 08:18:23;;;;;;;16.55;2.75;;;8.90;99.90;;;;;;5086408;28;20048;-75
2022/12/30 08:20:48;;;;;;;19.92;3.42;;;8.90;99.90;;;;;;5106977;28;20059;-75
2022/12/30 08:23:14;;;;;;;14.52;2.10;;;8.90;99.90;;;;;;5099591;28;20043;-75
2022/12/30 08:25:40;;;;;;;15.32;3.33;;;8.90;99.90;;;;;;5098633;28;20032;-72
2022/12/30 08:28:06;;;;;;;14.13;2.75;;;8.80;99.90;;;;;;5094680;28;20114;-72
2022/12/30 08:30:32;;;;;;;17.65;3.17;;;8.90;99.90;;;;;;5102776;28;20050;-72
2022/12/30 08:32:57;;;;;;;13.48;2.92;;;8.90;99.90;;;;;;5107564;28;20497;-73
2022/12/30 08:35:23;;;;;;;12.15;2.15;;;8.90;99.90;;;;;;5102840;28;20024;-72
2022/12/30 08:37:49;;;;;;;18.50;3.20;;;8.80;99.90;;;;;;5086822;28;20359;-72
2022/12/30 08:40:15;;;;;;;19.27;3.00;;;8.80;99.90;;;;;;5099125;28;20039;-72
2022/12/30 08:42:41;;;;;;;21.63;2.90;;;8.90;99.90;;;;;;5097484;28;20018;-73
2022/12/30 08:45:07;;;;;;;20.52;3.15;;;8.80;99.90;;;;;;5102738;28;20504;-72
2022/12/30 08:47:35;;;;;;;19.60;2.55;;;8.90;99.90;;;;;;4780613;28;22060;-74
2022/12/30 08:50:04;;;;;;;20.05;3.03;;;8.90;99.90;;;;;;5095876;28;20491;-71
2022/12/30 08:52:30;;;;;;;22.20;2.53;;;8.90;99.90;;;;;;5104991;28;20085;-68
2022/12/30 08:54:56;;;;;;;18.05;2.38;;;8.90;99.90;;;;;;5090805;28;20483;-76
2022/12/30 08:57:21;;;;;;;19.65;2.38;;;9.00;99.90;;;;;;5099495;28;20042;-74
2022/12/30 08:59:47;;;;;;;24.27;2.70;;;9.00;99.90;;;;;;5096541;28;20036;-74
2022/12/30 09:02:14;;;;;;;17.17;2.72;;;9.00;99.90;;;;;;5095012;28;20020;-73
2022/12/30 09:04:40;;;;;;;16.10;3.45;;;9.00;99.90;;;;;;5087838;28;20080;-69
2022/12/30 09:07:06;;;;;;;25.27;3.10;;;9.10;99.90;;;;;;5082180;28;20027;-70
2022/12/30 09:09:32;;;;;;;18.95;3.08;;;9.10;99.90;;;;;;5108171;28;20019;-71
2022/12/30 09:11:58;;;;;;;14.05;2.53;;;9.10;99.90;;;;;;5088140;28;20032;-71
2022/12/30 09:14:24;;;;;;;17.17;3.35;;;9.00;99.90;;;;;;5097489;28;20020;-66
2022/12/30 09:16:50;;;;;;;13.63;2.53;;;9.00;99.90;;;;;;5102989;28;20031;-67
2022/12/30 09:19:16;;;;;;;10.23;1.67;;;9.00;99.90;;;;;;5081619;28;20051;-67
2022/12/30 09:21:42;;;;;;;15.30;2.65;;;9.00;99.90;;;;;;5080982;28;20024;-68
2022/12/30 09:24:09;;;;;;;11.95;1.95;;;9.00;99.90;;;;;;5079753;28;20024;-66
2022/12/30 09:27:12;;;;;;;8.93;1.95;;;9.00;99.90;;;;;;5108115;28;20024;-67
2022/12/30 09:29:37;;;;;;;10.00;1.73;;;9.10;99.90;;;;;;5104815;28;20472;-69
2022/12/30 09:32:03;;;;;;;15.07;1.75;;;9.10;99.90;;;;;;5109210;28;20026;-69
2022/12/30 09:34:29;;;;;;;9.32;1.60;;;9.00;99.90;;;;;;5107839;28;20119;-68
2022/12/30 09:36:55;;;;;;;7.45;1.95;;;9.10;99.90;;;;;;5108666;28;20057;-68
2022/12/30 09:39:30;;;;;;;11.13;1.58;;;9.10;99.90;;;;;;5106580;28;20471;-69
2022/12/30 09:45:03;;;;;;;21.52;2.55;;;9.10;99.90;;;;;;5103826;28;20039;-69
2022/12/30 09:47:33;;;;;;;9.07;1.40;;;9.20;99.90;;;;;;5085412;28;20024;-72
2022/12/30 09:50:23;;;;;;;18.88;2.03;;;9.20;99.90;;;;;;5103312;28;20031;-72
2022/12/30 09:53:13;;;;;;;21.45;2.45;;;9.20;99.90;;;;;;5092794;28;20031;-74
2022/12/30 09:55:56;;;;;;;13.23;2.00;;;9.20;99.90;;;;;;5103767;28;20041;-74
2022/12/30 09:58:24;;;;;;;;;;;9.20;99.90;;;;;;5076673;28;20028;-76
2022/12/30 10:00:52;;;;;;;11.60;1.88;;;9.20;99.90;;;;;;5106448;28;19908;-76
2022/12/30 10:03:19;;;;;;;16.80;1.65;;;9.30;99.90;;;;;;5099631;28;20020;-75
2022/12/30 10:06:07;;;;;;;19.10;2.47;;;9.40;99.90;;;;;;5078195;28;20062;-73
2022/12/30 10:12:02;;;;;;;9.35;1.67;;;9.50;99.90;;;;;;5025477;28;20032;-73
2022/12/30 10:14:42;;;;;;;11.48;2.20;;;9.70;99.90;;;;;;5025567;28;20037;-72
2022/12/30 10:20:42;;;;;;;15.68;1.33;;;9.90;99.90;;;;;;5028930;28;20048;-71
2022/12/30 10:23:50;;;;;;;9.30;1.52;;;10.10;99.90;;;;;;5025400;28;20049;-70
2022/12/30 10:26:53;;;;;;;18.55;3.33;;;10.30;99.90;;;;;;5025588;28;20113;-75
2022/12/30 10:29:56;;;;;;;5.43;1.55;;;10.30;99.90;;;;;;5026411;28;20053;-73
2022/12/30 10:32:32;;;;;;;9.13;1.33;;;10.50;99.90;;;;;;5026530;28;20056;-71
2022/12/30 10:35:36;;;;;;;20.75;2.85;;;10.40;99.90;;;;;;5022873;28;20467;-71
2022/12/30 10:38:05;;;;;;;13.48;2.60;;;10.40;99.90;;;;;;5026057;28;20624;-73
2022/12/30 10:41:11;;;;;;;16.13;1.90;;;10.50;99.90;;;;;;5011550;28;20493;-70
2022/12/30 10:47:16;;;;;;;17.20;2.80;;;11.20;99.90;;;;;;5026589;28;20025;-75
2022/12/30 10:53:55;;;;;;;16.98;1.60;;;11.40;99.90;;;;;;5103681;28;20038;-83
2022/12/30 10:56:27;;;;;;;10.10;1.50;;;11.50;99.90;;;;;;5105063;28;20020;-77
2022/12/30 10:59:02;;;;;;;;;;;11.60;99.90;;;;;;5108257;28;20042;-79
2022/12/30 11:01:34;;;;;;;15.27;1.73;;;11.70;99.90;;;;;;5103465;28;20052;-74
2022/12/30 11:04:00;;;;;;;15.35;2.03;;;11.80;99.90;;;;;;5091558;28;20043;-78
2022/12/30 11:06:37;;;;;;;20.20;3.65;;;11.80;99.90;;;;;;5098820;28;20028;-77
2022/12/30 11:09:12;;;;;;;17.05;2.22;;;12.00;99.90;;;;;;5090482;28;20082;-78
2022/12/30 11:14:54;;;;;;;22.55;2.00;;;12.10;99.90;;;;;;5093394;28;20394;-78
2022/12/30 11:17:26;;;;;;;16.77;2.30;;;12.30;99.90;;;;;;5097140;28;20038;-77
2022/12/30 11:19:59;;;;;;;16.55;2.33;;;12.40;99.90;;;;;;5097362;28;20107;-79
2022/12/30 11:22:25;;;;;;;20.98;2.30;;;12.40;99.90;;;;;;5076652;28;20024;-75
2022/12/30 11:25:13;;;;;;;18.75;2.25;;;12.50;99.90;;;;;;5102102;28;20064;-75
2022/12/30 11:27:42;;;;;;;23.05;3.17;;;12.60;99.90;;;;;;5102556;28;20028;-79
2022/12/30 11:30:30;;;;;;;22.67;2.17;;;12.70;99.90;;;;;;5101613;28;20032;-82
2022/12/30 11:33:01;;;;;;;17.05;2.47;;;12.80;99.90;;;;;;5100053;28;20111;-79
2022/12/30 11:35:42;;;;;;;17.95;1.60;;;12.90;99.90;;;;;;5102407;28;20032;-74
2022/12/30 11:38:35;;;;;;;25.20;2.25;;;13.00;99.90;;;;;;5101032;28;20040;-75
2022/12/30 11:41:17;;;;;;;16.33;2.30;;;13.10;99.90;;;;;;5106968;28;20022;-73
2022/12/30 11:50:28;;;;;;;12.73;1.50;;;13.20;99.90;;;;;;5085834;28;20586;-75
2022/12/30 11:53:02;;;;;;;9.77;1.30;;;13.20;99.90;;;;;;5088139;28;20096;-73
2022/12/30 11:56:05;;;;;;;14.93;1.80;;;13.30;99.90;;;;;;5091802;28;20035;-73
2022/12/30 11:58:39;;;;;;;16.40;1.65;;;13.30;99.90;;;;;;5086013;28;20047;-75
2022/12/30 12:01:17;;;;;;;18.38;2.13;;;13.30;99.90;;;;;;5079162;28;20030;-75
2022/12/30 12:03:55;;;;;;;22.92;3.03;;;13.40;99.90;;;;;;5091931;28;20028;-73
2022/12/30 12:06:21;;;;;;;24.52;3.22;;;13.30;99.90;;;;;;5080149;28;20028;-73
2022/12/30 12:08:46;;;;;;;28.33;3.25;;;13.40;99.90;;;;;;5074501;28;20028;-72
2022/12/30 12:11:36;;;;;;;28.05;2.90;;;13.40;99.90;;;;;;5075329;28;20098;-72
2022/12/30 12:14:07;;;;;;;27.00;3.45;;;13.40;99.90;;;;;;5071371;28;20118;-72
2022/12/30 12:16:52;;;;;;;30.13;2.78;;;13.50;99.90;;;;;;5078098;28;20034;-72
2022/12/30 12:19:30;;;;;;;20.55;2.88;;;13.60;99.90;;;;;;5079232;28;20036;-73
2022/12/30 12:22:00;;;;;;;25.55;4.60;;;13.60;99.90;;;;;;5087478;28;20028;-74
2022/12/30 12:24:48;;;;;;;24.02;3.70;;;13.60;99.90;;;;;;5091415;28;20104;-72
2022/12/30 12:27:25;;;;;;;31.30;4.03;;;13.60;99.90;;;;;;5075972;28;20043;-74
2022/12/30 12:29:54;;;;;;;41.63;4.30;;;13.80;99.90;;;;;;5086376;28;20016;-73
2022/12/30 12:32:48;;;;;;;21.45;3.75;;;13.90;99.90;;;;;;5084408;28;20028;-72
2022/12/30 12:38:47;;;;;;;28.55;4.30;;;13.90;99.90;;;;;;5079329;28;20054;-75
2022/12/30 12:41:39;;;;;;;38.33;4.53;;;13.80;99.90;;;;;;5080274;28;20047;-76
2022/12/30 12:44:32;;;;;;;39.58;4.57;;;13.90;99.90;;;;;;5080128;28;20027;-78
2022/12/30 12:47:03;;;;;;;46.25;5.53;;;13.80;99.90;;;;;;5077986;28;20105;-81
2022/12/30 12:53:30;;;;;;;33.85;4.75;;;13.80;99.90;;;;;;5098132;28;20425;-75
2022/12/30 12:56:05;;;;;;;32.22;5.47;;;13.70;99.90;;;;;;5095800;28;20023;-72
2022/12/30 12:58:41;;;;;;;30.60;5.10;;;13.70;99.90;;;;;;5105213;28;20043;-73
2022/12/30 13:01:12;;;;;;;27.30;3.85;;;13.60;99.90;;;;;;5100514;28;20020;-72
2022/12/30 13:04:15;;;;;;;18.88;3.47;;;13.60;99.90;;;;;;5101292;28;20050;-74
2022/12/30 13:07:00;;;;;;;26.20;4.07;;;13.50;99.90;;;;;;5108965;28;20030;-76
2022/12/30 13:09:36;;;;;;;21.50;4.43;;;13.50;99.90;;;;;;5078269;28;20047;-77
2022/12/30 13:12:12;;;;;;;30.55;4.75;;;13.40;99.90;;;;;;5086660;28;20081;-73
2022/12/30 13:14:49;;;;;;;31.40;5.00;;;13.40;99.90;;;;;;5103652;28;20596;-73
2022/12/30 13:17:40;;;;;;;38.95;6.63;;;13.40;99.90;;;;;;5090685;28;20030;-72
2022/12/30 13:20:14;;;;;;;32.95;3.97;;;13.20;99.90;;;;;;5094395;28;20051;-75
2022/12/30 13:22:40;;;;;;;37.70;6.97;;;13.20;99.90;;;;;;5098410;28;20032;-74
2022/12/30 13:25:23;;;;;;;45.13;6.07;;;13.10;99.90;;;;;;5102016;28;20023;-72
2022/12/30 13:27:52;;;;;;;49.35;5.75;;;13.00;99.90;;;;;;5102954;28;20429;-71
2022/12/30 13:30:20;;;;;;;37.33;6.53;;;12.90;99.90;;;;;;5103067;28;20387;-72
2022/12/30 13:32:52;;;;;;;45.75;6.32;;;12.90;99.90;;;;;;5107129;28;20130;-72
2022/12/30 13:35:52;;;;;;;50.95;7.32;;;12.90;99.90;;;;;;5105128;28;20024;-70
2022/12/30 13:38:41;;;;;;;37.10;7.38;;;12.90;99.90;;;;;;5089928;28;20068;-69
2022/12/30 13:41:25;;;;;;;30.67;4.50;;;12.80;99.90;;;;;;5098297;28;20372;-69
2022/12/30 13:43:59;;;;;;;24.90;3.80;;;12.80;99.90;;;;;;5105567;28;20023;-71
2022/12/30 13:46:31;;;;;;;37.60;5.03;;;12.70;99.90;;;;;;5105646;28;20387;-73
2022/12/30 13:49:11;;;;;;;30.45;4.88;;;12.60;99.90;;;;;;5093424;28;20059;-69
2022/12/30 13:51:37;;;;;;;31.67;5.38;;;12.60;99.90;;;;;;5106395;28;20023;-70
2022/12/30 13:54:10;;;;;;;38.58;7.13;;;12.60;99.90;;;;;;5091800;28;20020;-72
2022/12/30 13:56:37;;;;;;;33.60;6.53;;;12.50;99.90;;;;;;5100712;28;20032;-69
2022/12/30 13:59:04;;;;;;;41.05;7.70;;;12.60;99.90;;;;;;5101298;28;20089;-70
2022/12/30 14:01:32;;;;;;;32.75;6.57;;;12.50;99.90;;;;;;5089182;28;20176;-70
2022/12/30 14:04:10;;;;;;;38.85;5.60;;;12.60;99.90;;;;;;5099126;28;20118;-73
2022/12/30 14:06:49;;;;;;;30.20;5.03;;;12.60;99.90;;;;;;5106726;28;20054;-72
2022/12/30 14:09:21;;;;;;;33.53;4.47;;;12.60;99.90;;;;;;5099136;28;20043;-72
2022/12/30 14:12:31;;;;;;;37.55;5.45;;;12.60;99.90;;;;;;5095444;28;20024;-71
2022/12/30 14:15:00;;;;;;;36.30;4.93;;;12.70;99.90;;;;;;5094848;28;20020;-71
2022/12/30 14:17:32;;;;;;;33.92;5.15;;;12.70;99.90;;;;;;5096248;28;20032;-71
2022/12/30 14:20:17;;;;;;;35.77;5.30;;;12.60;99.90;;;;;;5094587;28;20036;-70
2022/12/30 14:22:43;;;;;;;40.08;6.30;;;12.50;99.90;;;;;;5094070;28;20276;-70
2022/12/30 14:25:38;;;;;;;37.40;5.40;;;12.50;99.90;;;;;;5044838;28;20412;-70
2022/12/30 14:28:24;;;;;;;34.58;5.55;;;12.40;99.90;;;;;;5022510;28;20018;-69
2022/12/30 14:30:55;;;;;;;35.72;4.97;;;12.40;99.90;;;;;;5030087;28;20029;-69
2022/12/30 14:33:39;;;;;;;27.50;4.78;;;12.40;99.90;;;;;;5029962;28;20164;-70
2022/12/30 14:36:14;;;;;;;35.38;5.00;;;12.40;99.90;;;;;;5032456;28;20037;-70
2022/12/30 14:38:42;;;;;;;38.08;7.07;;;12.40;99.90;;;;;;5027334;28;20030;-70
2022/12/30 14:41:14;;;;;;;32.80;5.25;;;12.40;99.90;;;;;;5030268;28;20120;-70
2022/12/30 14:44:00;;;;;;;37.17;5.72;;;12.30;99.90;;;;;;5024571;28;20040;-72